sensor_id;sensor_type;location;lat;lon;timestamp;temperature;humidity
18932;DHT22;9598;50.954;3.112;2022-07-03T00:01:36;19.70;99.90
18932;DHT22;9598;50.954;3.112;2022-07-03T00:06:38;19.60;99.90
18932;DHT22;9598;50.954;3.112;2022-07-03T00:11:42;19.70;99.90
18932;DHT22;9598;50.954;3.112;2022-07-03T00:16:45;19.60;99.90
18932;DHT22;9598;50.954;3.112;2022-07-03T00:21:55;19.50;99.90
18932;DHT22;9598;50.954;3.112;2022-07-03T00:26:59;19.40;99.90
18932;DHT22;9598;50.954;3.112;2022-07-03T00:32:04;19.30;99.90
18932;DHT22;9598;50.954;3.112;2022-07-03T00:37:09;19.30;99.90
18932;DHT22;9598;50.954;3.112;2022-07-03T00:42:13;19.20;99.90
18932;DHT22;9598;50.954;3.112;2022-07-03T00:47:16;19.10;99.90
18932;DHT22;9598;50.954;3.112;2022-07-03T00:52:20;19.00;99.90
18932;DHT22;9598;50.954;3.112;2022-07-03T00:57:28;19.00;99.90
18932;DHT22;9598;50.954;3.112;2022-07-03T01:02:46;18.90;99.90
18932;DHT22;9598;50.954;3.112;2022-07-03T01:08:00;18.90;99.90
18932;DHT22;9598;50.954;3.112;2022-07-03T01:13:13;18.90;99.90
18932;DHT22;9598;50.954;3.112;2022-07-03T01:18:26;18.90;99.90
18932;DHT22;9598;50.954;3.112;2022-07-03T01:23:35;18.90;99.90
18932;DHT22;9598;50.954;3.112;2022-07-03T01:28:45;18.80;99.90
18932;DHT22;9598;50.954;3.112;2022-07-03T01:33:52;18.80;99.90
18932;DHT22;9598;50.954;3.112;2022-07-03T01:38:55;18.80;99.90
18932;DHT22;9598;50.954;3.112;2022-07-03T01:44:01;18.80;99.90
18932;DHT22;9598;50.954;3.112;2022-07-03T01:49:09;18.80;99.90
18932;DHT22;9598;50.954;3.112;2022-07-03T01:54:12;18.70;99.90
18932;DHT22;9598;50.954;3.112;2022-07-03T01:59:19;18.60;99.90
18932;DHT22;9598;50.954;3.112;2022-07-03T02:04:24;18.50;99.90
18932;DHT22;9598;50.954;3.112;2022-07-03T02:09:36;18.50;99.90
18932;DHT22;9598;50.954;3.112;2022-07-03T02:14:52;18.30;99.90
18932;DHT22;9598;50.954;3.112;2022-07-03T02:20:02;18.30;99.90
18932;DHT22;9598;50.954;3.112;2022-07-03T02:25:06;18.20;99.90
18932;DHT22;9598;50.954;3.112;2022-07-03T02:30:11;18.20;99.90
18932;DHT22;9598;50.954;3.112;2022-07-03T02:35:23;18.20;99.90
18932;DHT22;9598;50.954;3.112;2022-07-03T02:40:32;18.10;99.90
18932;DHT22;9598;50.954;3.112;2022-07-03T02:45:42;18.00;99.90
18932;DHT22;9598;50.954;3.112;2022-07-03T02:50:47;17.80;99.90
18932;DHT22;9598;50.954;3.112;2022-07-03T02:55:56;17.60;99.90
18932;DHT22;9598;50.954;3.112;2022-07-03T03:01:07;17.50;99.90
18932;DHT22;9598;50.954;3.112;2022-07-03T03:06:13;17.50;99.90
18932;DHT22;9598;50.954;3.112;2022-07-03T03:11:22;17.50;99.90
18932;DHT22;9598;50.954;3.112;2022-07-03T03:16:27;17.50;99.90
18932;DHT22;9598;50.954;3.112;2022-07-03T03:21:31;17.50;99.90
18932;DHT22;9598;50.954;3.112;2022-07-03T03:26:38;17.50;99.90
18932;DHT22;9598;50.954;3.112;2022-07-03T03:31:42;17.50;99.90
18932;DHT22;9598;50.954;3.112;2022-07-03T03:36:44;17.60;99.90
18932;DHT22;9598;50.954;3.112;2022-07-03T03:41:46;17.60;99.90
18932;DHT22;9598;50.954;3.112;2022-07-03T03:46:50;17.70;99.90
18932;DHT22;9598;50.954;3.112;2022-07-03T03:51:53;17.70;99.90
18932;DHT22;9598;50.954;3.112;2022-07-03T03:56:55;17.60;99.90
18932;DHT22;9598;50.954;3.112;2022-07-03T04:01:59;17.50;99.90
18932;DHT22;9598;50.954;3.112;2022-07-03T04:07:01;17.40;99.90
18932;DHT22;9598;50.954;3.112;2022-07-03T04:12:04;17.30;99.90
18932;DHT22;9598;50.954;3.112;2022-07-03T04:17:10;17.30;99.90
18932;DHT22;9598;50.954;3.112;2022-07-03T04:22:12;17.30;99.90
18932;DHT22;9598;50.954;3.112;2022-07-03T04:27:18;17.40;99.90
18932;DHT22;9598;50.954;3.112;2022-07-03T04:32:21;17.30;99.90
18932;DHT22;9598;50.954;3.112;2022-07-03T04:37:23;17.30;99.90
18932;DHT22;9598;50.954;3.112;2022-07-03T04:42:25;17.30;99.90
18932;DHT22;9598;50.954;3.112;2022-07-03T04:47:29;17.20;99.90
18932;DHT22;9598;50.954;3.112;2022-07-03T04:52:31;17.20;99.90
18932;DHT22;9598;50.954;3.112;2022-07-03T04:57:33;17.10;99.90
18932;DHT22;9598;50.954;3.112;2022-07-03T05:02:37;17.10;99.90
18932;DHT22;9598;50.954;3.112;2022-07-03T05:07:39;17.20;99.90
18932;DHT22;9598;50.954;3.112;2022-07-03T05:12:41;17.20;99.90
18932;DHT22;9598;50.954;3.112;2022-07-03T05:17:44;17.30;99.90
18932;DHT22;9598;50.954;3.112;2022-07-03T05:22:46;17.30;99.90
18932;DHT22;9598;50.954;3.112;2022-07-03T05:27:49;17.30;99.90
18932;DHT22;9598;50.954;3.112;2022-07-03T05:32:54;17.30;99.90
18932;DHT22;9598;50.954;3.112;2022-07-03T05:37:56;17.40;99.90
18932;DHT22;9598;50.954;3.112;2022-07-03T05:42:59;17.40;99.90
18932;DHT22;9598;50.954;3.112;2022-07-03T05:48:02;17.40;99.90
18932;DHT22;9598;50.954;3.112;2022-07-03T05:53:04;17.40;99.90
18932;DHT22;9598;50.954;3.112;2022-07-03T05:58:06;17.50;99.90
18932;DHT22;9598;50.954;3.112;2022-07-03T06:03:10;17.60;99.90
18932;DHT22;9598;50.954;3.112;2022-07-03T06:08:12;17.60;99.90
18932;DHT22;9598;50.954;3.112;2022-07-03T06:13:14;17.70;99.90
18932;DHT22;9598;50.954;3.112;2022-07-03T06:18:17;17.70;99.90
18932;DHT22;9598;50.954;3.112;2022-07-03T06:23:19;17.70;99.90
18932;DHT22;9598;50.954;3.112;2022-07-03T06:28:21;17.70;99.90
18932;DHT22;9598;50.954;3.112;2022-07-03T06:33:25;17.60;99.90
18932;DHT22;9598;50.954;3.112;2022-07-03T06:38:27;17.80;99.90
18932;DHT22;9598;50.954;3.112;2022-07-03T06:43:29;17.90;99.90
18932;DHT22;9598;50.954;3.112;2022-07-03T06:48:32;18.00;99.90
18932;DHT22;9598;50.954;3.112;2022-07-03T06:53:34;18.00;99.90
18932;DHT22;9598;50.954;3.112;2022-07-03T06:58:36;18.10;99.90
18932;DHT22;9598;50.954;3.112;2022-07-03T07:03:40;18.40;99.90
18932;DHT22;9598;50.954;3.112;2022-07-03T07:08:42;18.60;99.90
18932;DHT22;9598;50.954;3.112;2022-07-03T07:13:44;18.70;99.90
18932;DHT22;9598;50.954;3.112;2022-07-03T07:18:48;18.80;99.90
18932;DHT22;9598;50.954;3.112;2022-07-03T07:23:50;18.90;99.90
18932;DHT22;9598;50.954;3.112;2022-07-03T07:28:53;19.20;99.90
18932;DHT22;9598;50.954;3.112;2022-07-03T07:33:56;19.30;99.90
18932;DHT22;9598;50.954;3.112;2022-07-03T07:38:58;19.40;99.90
18932;DHT22;9598;50.954;3.112;2022-07-03T07:44:00;19.50;99.90
18932;DHT22;9598;50.954;3.112;2022-07-03T07:49:04;19.70;99.90
18932;DHT22;9598;50.954;3.112;2022-07-03T07:54:06;19.70;99.90
18932;DHT22;9598;50.954;3.112;2022-07-03T07:59:08;19.70;99.90
18932;DHT22;9598;50.954;3.112;2022-07-03T08:04:12;19.70;99.90
18932;DHT22;9598;50.954;3.112;2022-07-03T08:09:31;19.80;99.90
18932;DHT22;9598;50.954;3.112;2022-07-03T08:14:35;20.00;99.90
18932;DHT22;9598;50.954;3.112;2022-07-03T08:19:40;20.10;99.90
18932;DHT22;9598;50.954;3.112;2022-07-03T08:24:42;20.20;99.90
18932;DHT22;9598;50.954;3.112;2022-07-03T08:29:44;20.30;99.90
18932;DHT22;9598;50.954;3.112;2022-07-03T08:34:48;20.20;99.90
18932;DHT22;9598;50.954;3.112;2022-07-03T08:39:50;20.30;99.90
18932;DHT22;9598;50.954;3.112;2022-07-03T08:44:53;20.50;99.90
18932;DHT22;9598;50.954;3.112;2022-07-03T08:49:58;20.50;99.90
18932;DHT22;9598;50.954;3.112;2022-07-03T08:55:03;20.70;99.90
18932;DHT22;9598;50.954;3.112;2022-07-03T09:00:09;21.00;99.90
18932;DHT22;9598;50.954;3.112;2022-07-03T09:05:14;21.20;99.90
18932;DHT22;9598;50.954;3.112;2022-07-03T09:10:17;21.30;99.90
18932;DHT22;9598;50.954;3.112;2022-07-03T09:15:19;21.50;99.90
18932;DHT22;9598;50.954;3.112;2022-07-03T09:20:27;21.30;99.90
18932;DHT22;9598;50.954;3.112;2022-07-03T09:25:30;21.30;99.90
18932;DHT22;9598;50.954;3.112;2022-07-03T09:30:32;21.40;99.90
18932;DHT22;9598;50.954;3.112;2022-07-03T09:35:35;21.70;99.90
18932;DHT22;9598;50.954;3.112;2022-07-03T09:40:48;21.80;99.90
18932;DHT22;9598;50.954;3.112;2022-07-03T09:45:53;22.10;99.90
18932;DHT22;9598;50.954;3.112;2022-07-03T09:51:19;22.30;99.90
18932;DHT22;9598;50.954;3.112;2022-07-03T09:56:26;22.30;99.90
18932;DHT22;9598;50.954;3.112;2022-07-03T10:01:29;22.30;99.90
18932;DHT22;9598;50.954;3.112;2022-07-03T10:06:48;22.40;99.90
18932;DHT22;9598;50.954;3.112;2022-07-03T10:11:51;22.40;99.90
18932;DHT22;9598;50.954;3.112;2022-07-03T10:16:54;22.40;99.90
18932;DHT22;9598;50.954;3.112;2022-07-03T10:22:01;22.60;99.90
18932;DHT22;9598;50.954;3.112;2022-07-03T10:27:04;22.90;99.90
18932;DHT22;9598;50.954;3.112;2022-07-03T10:32:08;23.10;99.90
18932;DHT22;9598;50.954;3.112;2022-07-03T10:37:16;23.10;99.90
18932;DHT22;9598;50.954;3.112;2022-07-03T10:42:24;23.00;99.90
18932;DHT22;9598;50.954;3.112;2022-07-03T10:47:47;23.00;99.90
18932;DHT22;9598;50.954;3.112;2022-07-03T10:52:51;23.00;99.90
18932;DHT22;9598;50.954;3.112;2022-07-03T10:58:07;23.20;99.90
18932;DHT22;9598;50.954;3.112;2022-07-03T11:03:10;23.10;99.90
18932;DHT22;9598;50.954;3.112;2022-07-03T11:08:13;23.20;99.90
18932;DHT22;9598;50.954;3.112;2022-07-03T11:13:17;23.40;99.90
18932;DHT22;9598;50.954;3.112;2022-07-03T11:18:30;23.40;99.90
18932;DHT22;9598;50.954;3.112;2022-07-03T11:23:40;23.60;99.90
18932;DHT22;9598;50.954;3.112;2022-07-03T11:28:51;23.90;99.90
18932;DHT22;9598;50.954;3.112;2022-07-03T11:33:57;23.90;99.90
18932;DHT22;9598;50.954;3.112;2022-07-03T11:39:07;23.80;99.90
18932;DHT22;9598;50.954;3.112;2022-07-03T11:44:13;23.80;99.90
18932;DHT22;9598;50.954;3.112;2022-07-03T11:49:17;24.00;99.90
18932;DHT22;9598;50.954;3.112;2022-07-03T11:54:21;23.90;99.90
18932;DHT22;9598;50.954;3.112;2022-07-03T11:59:23;24.00;99.90
18932;DHT22;9598;50.954;3.112;2022-07-03T12:04:27;23.80;99.90
18932;DHT22;9598;50.954;3.112;2022-07-03T12:09:32;23.80;99.90
18932;DHT22;9598;50.954;3.112;2022-07-03T12:14:42;24.30;99.90
18932;DHT22;9598;50.954;3.112;2022-07-03T12:19:45;24.30;99.90
18932;DHT22;9598;50.954;3.112;2022-07-03T12:24:56;24.10;99.90
18932;DHT22;9598;50.954;3.112;2022-07-03T12:30:00;24.00;99.90
18932;DHT22;9598;50.954;3.112;2022-07-03T12:35:03;23.90;99.90
18932;DHT22;9598;50.954;3.112;2022-07-03T12:40:08;24.10;99.90
18932;DHT22;9598;50.954;3.112;2022-07-03T12:45:11;24.10;99.90
18932;DHT22;9598;50.954;3.112;2022-07-03T12:50:14;23.90;99.90
18932;DHT22;9598;50.954;3.112;2022-07-03T12:55:24;23.90;99.90
18932;DHT22;9598;50.954;3.112;2022-07-03T13:00:26;23.90;99.90
18932;DHT22;9598;50.954;3.112;2022-07-03T13:05:28;24.20;99.90
18932;DHT22;9598;50.954;3.112;2022-07-03T13:10:32;24.30;99.90
18932;DHT22;9598;50.954;3.112;2022-07-03T13:15:34;24.40;99.90
18932;DHT22;9598;50.954;3.112;2022-07-03T13:20:36;24.40;99.90
18932;DHT22;9598;50.954;3.112;2022-07-03T13:25:40;24.40;99.90
18932;DHT22;9598;50.954;3.112;2022-07-03T13:30:43;24.70;99.90
18932;DHT22;9598;50.954;3.112;2022-07-03T13:35:45;24.80;99.90
18932;DHT22;9598;50.954;3.112;2022-07-03T13:40:49;24.60;99.90
18932;DHT22;9598;50.954;3.112;2022-07-03T13:45:51;24.30;99.90
18932;DHT22;9598;50.954;3.112;2022-07-03T13:50:53;24.00;99.90
18932;DHT22;9598;50.954;3.112;2022-07-03T13:55:57;23.90;99.90
18932;DHT22;9598;50.954;3.112;2022-07-03T14:00:59;24.00;99.90
18932;DHT22;9598;50.954;3.112;2022-07-03T14:06:02;24.10;99.90
18932;DHT22;9598;50.954;3.112;2022-07-03T14:11:06;24.00;99.90
18932;DHT22;9598;50.954;3.112;2022-07-03T14:16:08;23.80;99.90
18932;DHT22;9598;50.954;3.112;2022-07-03T14:21:11;23.80;99.90
18932;DHT22;9598;50.954;3.112;2022-07-03T14:26:14;23.80;99.90
18932;DHT22;9598;50.954;3.112;2022-07-03T14:31:36;23.80;99.90
18932;DHT22;9598;50.954;3.112;2022-07-03T14:36:56;23.90;99.90
18932;DHT22;9598;50.954;3.112;2022-07-03T14:41:59;23.70;99.90
18932;DHT22;9598;50.954;3.112;2022-07-03T14:47:04;23.50;99.90
18932;DHT22;9598;50.954;3.112;2022-07-03T14:52:06;23.50;99.90
18932;DHT22;9598;50.954;3.112;2022-07-03T14:57:18;23.50;99.90
18932;DHT22;9598;50.954;3.112;2022-07-03T15:02:33;23.50;99.90
18932;DHT22;9598;50.954;3.112;2022-07-03T15:07:39;23.40;99.90
18932;DHT22;9598;50.954;3.112;2022-07-03T15:12:47;23.40;99.90
18932;DHT22;9598;50.954;3.112;2022-07-03T15:17:51;23.20;99.90
18932;DHT22;9598;50.954;3.112;2022-07-03T15:22:53;23.20;99.90
18932;DHT22;9598;50.954;3.112;2022-07-03T15:27:57;23.30;99.90
18932;DHT22;9598;50.954;3.112;2022-07-03T15:32:59;23.40;99.90
18932;DHT22;9598;50.954;3.112;2022-07-03T15:38:09;23.40;99.90
18932;DHT22;9598;50.954;3.112;2022-07-03T15:43:35;23.50;99.90
18932;DHT22;9598;50.954;3.112;2022-07-03T15:48:46;23.40;99.90
18932;DHT22;9598;50.954;3.112;2022-07-03T15:53:51;23.50;99.90
18932;DHT22;9598;50.954;3.112;2022-07-03T15:59:01;23.50;99.90
18932;DHT22;9598;50.954;3.112;2022-07-03T16:04:08;23.60;99.90
18932;DHT22;9598;50.954;3.112;2022-07-03T16:09:10;23.60;99.90
18932;DHT22;9598;50.954;3.112;2022-07-03T16:14:14;23.50;99.90
18932;DHT22;9598;50.954;3.112;2022-07-03T16:19:17;23.40;99.90
18932;DHT22;9598;50.954;3.112;2022-07-03T16:24:23;23.40;99.90
18932;DHT22;9598;50.954;3.112;2022-07-03T16:29:26;23.40;99.90
18932;DHT22;9598;50.954;3.112;2022-07-03T16:34:34;23.30;99.90
18932;DHT22;9598;50.954;3.112;2022-07-03T16:39:41;23.20;99.90
18932;DHT22;9598;50.954;3.112;2022-07-03T16:44:45;23.20;99.90
18932;DHT22;9598;50.954;3.112;2022-07-03T16:49:49;23.10;99.90
18932;DHT22;9598;50.954;3.112;2022-07-03T16:54:51;23.10;99.90
18932;DHT22;9598;50.954;3.112;2022-07-03T16:59:55;23.40;99.90
18932;DHT22;9598;50.954;3.112;2022-07-03T17:04:58;23.50;99.90
18932;DHT22;9598;50.954;3.112;2022-07-03T17:10:02;23.50;99.90
18932;DHT22;9598;50.954;3.112;2022-07-03T17:15:07;23.40;99.90
18932;DHT22;9598;50.954;3.112;2022-07-03T17:20:12;23.30;99.90
18932;DHT22;9598;50.954;3.112;2022-07-03T17:25:22;23.30;99.90
18932;DHT22;9598;50.954;3.112;2022-07-03T17:30:35;23.20;99.90
18932;DHT22;9598;50.954;3.112;2022-07-03T17:35:41;23.20;99.90
18932;DHT22;9598;50.954;3.112;2022-07-03T17:40:45;23.10;99.90
18932;DHT22;9598;50.954;3.112;2022-07-03T17:45:49;23.20;99.90
18932;DHT22;9598;50.954;3.112;2022-07-03T17:50:54;23.20;99.90
18932;DHT22;9598;50.954;3.112;2022-07-03T17:55:57;23.20;99.90
18932;DHT22;9598;50.954;3.112;2022-07-03T18:01:01;23.10;99.90
18932;DHT22;9598;50.954;3.112;2022-07-03T18:06:05;23.10;99.90
18932;DHT22;9598;50.954;3.112;2022-07-03T18:11:13;23.10;99.90
18932;DHT22;9598;50.954;3.112;2022-07-03T18:16:19;23.00;99.90
18932;DHT22;9598;50.954;3.112;2022-07-03T18:21:21;23.00;99.90
18932;DHT22;9598;50.954;3.112;2022-07-03T18:26:25;23.00;99.90
18932;DHT22;9598;50.954;3.112;2022-07-03T18:31:29;22.90;99.90
18932;DHT22;9598;50.954;3.112;2022-07-03T18:36:32;22.90;99.90
18932;DHT22;9598;50.954;3.112;2022-07-03T18:41:34;22.90;99.90
18932;DHT22;9598;50.954;3.112;2022-07-03T18:46:38;22.80;99.90
18932;DHT22;9598;50.954;3.112;2022-07-03T18:51:42;22.70;99.90
18932;DHT22;9598;50.954;3.112;2022-07-03T18:56:51;22.50;99.90
18932;DHT22;9598;50.954;3.112;2022-07-03T19:01:57;22.50;99.90
18932;DHT22;9598;50.954;3.112;2022-07-03T19:07:05;22.50;99.90
18932;DHT22;9598;50.954;3.112;2022-07-03T19:12:11;22.50;99.90
18932;DHT22;9598;50.954;3.112;2022-07-03T19:17:19;22.40;99.90
18932;DHT22;9598;50.954;3.112;2022-07-03T19:22:22;22.50;99.90
18932;DHT22;9598;50.954;3.112;2022-07-03T19:27:24;22.40;99.90
18932;DHT22;9598;50.954;3.112;2022-07-03T19:32:27;22.40;99.90
18932;DHT22;9598;50.954;3.112;2022-07-03T19:37:30;22.20;99.90
18932;DHT22;9598;50.954;3.112;2022-07-03T19:42:32;22.10;99.90
18932;DHT22;9598;50.954;3.112;2022-07-03T19:47:36;22.10;99.90
18932;DHT22;9598;50.954;3.112;2022-07-03T19:52:38;22.00;99.90
18932;DHT22;9598;50.954;3.112;2022-07-03T19:57:40;21.90;99.90
18932;DHT22;9598;50.954;3.112;2022-07-03T20:02:44;21.80;99.90
18932;DHT22;9598;50.954;3.112;2022-07-03T20:07:46;21.80;99.90
18932;DHT22;9598;50.954;3.112;2022-07-03T20:12:48;21.70;99.90
18932;DHT22;9598;50.954;3.112;2022-07-03T20:17:51;21.60;99.90
18932;DHT22;9598;50.954;3.112;2022-07-03T20:22:55;21.50;99.90
18932;DHT22;9598;50.954;3.112;2022-07-03T20:27:57;21.40;99.90
18932;DHT22;9598;50.954;3.112;2022-07-03T20:33:01;21.40;99.90
18932;DHT22;9598;50.954;3.112;2022-07-03T20:38:06;21.30;99.90
18932;DHT22;9598;50.954;3.112;2022-07-03T20:43:08;21.20;99.90
18932;DHT22;9598;50.954;3.112;2022-07-03T20:48:12;21.00;99.90
18932;DHT22;9598;50.954;3.112;2022-07-03T20:53:14;20.90;99.90
18932;DHT22;9598;50.954;3.112;2022-07-03T20:58:16;20.80;99.90
18932;DHT22;9598;50.954;3.112;2022-07-03T21:03:19;20.70;99.90
18932;DHT22;9598;50.954;3.112;2022-07-03T21:08:21;20.70;99.90
18932;DHT22;9598;50.954;3.112;2022-07-03T21:13:27;20.60;99.90
18932;DHT22;9598;50.954;3.112;2022-07-03T21:18:30;20.50;99.90
18932;DHT22;9598;50.954;3.112;2022-07-03T21:23:33;20.50;99.90
18932;DHT22;9598;50.954;3.112;2022-07-03T21:28:35;20.40;99.90
18932;DHT22;9598;50.954;3.112;2022-07-03T21:33:38;20.30;99.90
18932;DHT22;9598;50.954;3.112;2022-07-03T21:38:40;20.20;99.90
18932;DHT22;9598;50.954;3.112;2022-07-03T21:43:42;20.20;99.90
18932;DHT22;9598;50.954;3.112;2022-07-03T21:48:46;20.10;99.90
18932;DHT22;9598;50.954;3.112;2022-07-03T21:53:48;20.00;99.90
18932;DHT22;9598;50.954;3.112;2022-07-03T21:58:51;19.80;99.90
18932;DHT22;9598;50.954;3.112;2022-07-03T22:03:55;19.70;99.90
18932;DHT22;9598;50.954;3.112;2022-07-03T22:08:57;19.70;99.90
18932;DHT22;9598;50.954;3.112;2022-07-03T22:13:59;19.60;99.90
18932;DHT22;9598;50.954;3.112;2022-07-03T22:19:02;19.50;99.90
18932;DHT22;9598;50.954;3.112;2022-07-03T22:24:05;19.50;99.90
18932;DHT22;9598;50.954;3.112;2022-07-03T22:29:07;19.30;99.90
18932;DHT22;9598;50.954;3.112;2022-07-03T22:34:10;19.20;99.90
18932;DHT22;9598;50.954;3.112;2022-07-03T22:39:13;19.10;99.90
18932;DHT22;9598;50.954;3.112;2022-07-03T22:44:15;19.10;99.90
18932;DHT22;9598;50.954;3.112;2022-07-03T22:49:18;19.10;99.90
18932;DHT22;9598;50.954;3.112;2022-07-03T22:54:20;19.00;99.90
18932;DHT22;9598;50.954;3.112;2022-07-03T22:59:22;19.00;99.90
18932;DHT22;9598;50.954;3.112;2022-07-03T23:04:26;18.90;99.90
18932;DHT22;9598;50.954;3.112;2022-07-03T23:09:28;18.90;99.90
18932;DHT22;9598;50.954;3.112;2022-07-03T23:14:30;18.90;99.90
18932;DHT22;9598;50.954;3.112;2022-07-03T23:19:33;18.80;99.90
18932;DHT22;9598;50.954;3.112;2022-07-03T23:24:35;18.80;99.90
18932;DHT22;9598;50.954;3.112;2022-07-03T23:29:37;18.80;99.90
18932;DHT22;9598;50.954;3.112;2022-07-03T23:34:41;18.70;99.90
18932;DHT22;9598;50.954;3.112;2022-07-03T23:39:43;18.70;99.90
18932;DHT22;9598;50.954;3.112;2022-07-03T23:44:45;18.50;99.90
18932;DHT22;9598;50.954;3.112;2022-07-03T23:49:49;18.40;99.90
18932;DHT22;9598;50.954;3.112;2022-07-03T23:55:09;18.30;99.90
